createdAt,value
2022-11-26T00:02:30.456Z,1.90
2022-11-26T00:05:00.016Z,1.80
2022-11-26T00:07:30.347Z,1.80
2022-11-26T00:09:59.603Z,1.80
2022-11-26T00:12:34.589Z,1.90
2022-11-26T00:15:25.380Z,2.10
2022-11-26T00:17:54.165Z,2.10
2022-11-26T00:20:28.456Z,2.20
2022-11-26T00:23:01.589Z,2.20
2022-11-26T00:25:41.006Z,2.20
2022-11-26T00:28:30.005Z,2.20
2022-11-26T00:31:04.232Z,2.30
2022-11-26T00:33:32.780Z,2.40
2022-11-26T00:36:22.196Z,2.30
2022-11-26T00:38:57.511Z,2.30
2022-11-26T00:41:31.808Z,2.40
2022-11-26T00:43:59.333Z,2.40
2022-11-26T00:46:26.969Z,2.50
2022-11-26T00:48:54.389Z,2.30
2022-11-26T00:51:28.247Z,2.20
2022-11-26T00:53:59.845Z,2.20
2022-11-26T00:56:27.985Z,2.20
2022-11-26T00:58:55.638Z,2.20
2022-11-26T01:01:28.904Z,2.30
2022-11-26T01:03:58.520Z,2.50
2022-11-26T01:06:30.792Z,2.60
2022-11-26T01:08:58.551Z,2.50
2022-11-26T01:11:26.516Z,2.60
2022-11-26T01:13:55.203Z,2.60
2022-11-26T01:16:25.958Z,2.60
2022-11-26T01:18:56.602Z,2.60
2022-11-26T01:21:26.599Z,2.70
2022-11-26T01:23:54.465Z,2.70
2022-11-26T01:26:28.601Z,2.70
2022-11-26T01:28:56.447Z,2.70
2022-11-26T01:31:27.662Z,2.80
2022-11-26T01:33:55.894Z,2.60
2022-11-26T01:36:29.238Z,2.60
2022-11-26T01:39:04.181Z,2.60
2022-11-26T01:42:26.153Z,2.60
2022-11-26T01:44:53.624Z,2.60
2022-11-26T01:47:25.054Z,2.60
2022-11-26T01:50:29.246Z,2.70
2022-11-26T01:53:02.907Z,2.70
2022-11-26T01:55:56.674Z,2.70
2022-11-26T01:58:40.217Z,2.80
2022-11-26T02:01:08.370Z,2.90
2022-11-26T02:04:03.562Z,2.80
2022-11-26T02:06:34.441Z,2.80
2022-11-26T02:09:06.214Z,2.70
2022-11-26T02:11:33.801Z,2.70
2022-11-26T02:14:18.396Z,2.70
2022-11-26T02:17:10.773Z,2.70
2022-11-26T02:20:11.798Z,2.70
2022-11-26T02:23:03.279Z,2.70
2022-11-26T02:26:32.635Z,2.70
2022-11-26T02:29:10.968Z,2.80
2022-11-26T02:32:14.411Z,2.80
2022-11-26T02:34:56.097Z,2.80
2022-11-26T02:37:34.683Z,2.80
2022-11-26T02:40:02.468Z,2.80
2022-11-26T02:42:32.853Z,2.80
2022-11-26T02:45:10.970Z,2.80
2022-11-26T02:47:42.973Z,2.80
2022-11-26T02:50:20.918Z,2.90
2022-11-26T02:52:50.880Z,3.10
2022-11-26T02:55:24.447Z,3.20
2022-11-26T02:57:52.963Z,3.20
2022-11-26T03:00:20.997Z,3.30
2022-11-26T03:03:17.258Z,3.30
2022-11-26T03:05:44.827Z,3.20
2022-11-26T03:08:12.343Z,3.10
2022-11-26T03:10:39.833Z,3.20
2022-11-26T03:13:07.293Z,3.30
2022-11-26T03:15:34.721Z,3.40
2022-11-26T03:18:02.091Z,3.50
2022-11-26T03:20:29.552Z,3.60
2022-11-26T03:22:57.046Z,3.60
2022-11-26T03:25:24.489Z,3.60
2022-11-26T03:27:51.981Z,3.70
2022-11-26T03:30:19.527Z,3.70
2022-11-26T03:32:46.923Z,3.70
2022-11-26T03:35:14.435Z,3.60
2022-11-26T03:37:41.860Z,3.60
2022-11-26T03:40:10.285Z,3.60
2022-11-26T03:42:37.944Z,3.60
2022-11-26T03:45:06.384Z,3.50
2022-11-26T03:47:33.981Z,3.50
2022-11-26T03:50:01.531Z,3.50
2022-11-26T03:52:28.934Z,3.50
2022-11-26T03:54:56.837Z,3.50
2022-11-26T03:57:24.444Z,3.50
2022-11-26T03:59:51.963Z,3.50
2022-11-26T04:02:19.456Z,3.50
2022-11-26T04:04:46.883Z,3.40
2022-11-26T04:07:14.352Z,3.40
2022-11-26T04:09:41.881Z,3.30
2022-11-26T04:12:09.279Z,3.30
2022-11-26T04:14:37.044Z,3.40
2022-11-26T04:17:04.803Z,3.50
2022-11-26T04:19:32.390Z,3.60
2022-11-26T04:21:59.792Z,3.80
2022-11-26T04:24:27.366Z,3.70
2022-11-26T04:26:54.776Z,3.70
2022-11-26T04:29:22.206Z,3.50
2022-11-26T04:31:49.772Z,3.40
2022-11-26T04:34:17.301Z,3.40
2022-11-26T04:36:44.716Z,3.30
2022-11-26T04:39:12.833Z,3.30
2022-11-26T04:41:40.300Z,3.40
2022-11-26T04:44:07.848Z,3.40
2022-11-26T04:46:35.388Z,3.40
2022-11-26T04:49:02.874Z,3.60
2022-11-26T04:51:30.648Z,3.70
2022-11-26T04:54:01.701Z,3.80
2022-11-26T04:56:30.542Z,3.70
2022-11-26T04:58:58.038Z,3.70
2022-11-26T05:01:25.558Z,3.80
2022-11-26T05:03:53.031Z,4.00
2022-11-26T05:06:20.451Z,4.00
2022-11-26T05:08:47.856Z,4.10
2022-11-26T05:11:15.293Z,4.10
2022-11-26T05:13:43.061Z,4.10
2022-11-26T05:16:10.697Z,4.10
2022-11-26T05:18:38.207Z,4.10
2022-11-26T05:21:06.984Z,4.10
2022-11-26T05:23:34.905Z,4.10
2022-11-26T05:26:02.304Z,4.10
2022-11-26T05:28:29.717Z,4.10
2022-11-26T05:31:02.283Z,4.10
2022-11-26T05:33:29.978Z,4.10
2022-11-26T05:35:57.389Z,4.00
2022-11-26T05:38:24.925Z,4.00
2022-11-26T05:40:52.399Z,4.00
2022-11-26T05:43:20.000Z,3.90
2022-11-26T05:45:47.497Z,4.00
2022-11-26T05:48:15.139Z,4.00
2022-11-26T05:50:42.666Z,4.00
2022-11-26T05:53:10.093Z,4.00
2022-11-26T05:55:37.576Z,4.10
2022-11-26T05:58:05.130Z,4.10
2022-11-26T06:00:32.573Z,4.10
2022-11-26T06:03:00.099Z,4.10
2022-11-26T06:05:27.715Z,4.20
2022-11-26T06:07:55.183Z,4.20
2022-11-26T06:10:22.679Z,4.30
2022-11-26T06:12:50.159Z,4.20
2022-11-26T06:15:17.736Z,4.30
2022-11-26T06:17:45.220Z,4.40
2022-11-26T06:20:13.477Z,4.40
2022-11-26T06:22:43.129Z,4.50
2022-11-26T06:25:14.143Z,4.50
2022-11-26T06:27:42.535Z,4.70
2022-11-26T06:30:11.682Z,4.70
2022-11-26T06:32:39.087Z,4.70
2022-11-26T06:35:06.854Z,4.70
2022-11-26T06:37:34.332Z,4.60
2022-11-26T06:40:01.909Z,4.50
2022-11-26T06:42:29.898Z,4.50
2022-11-26T06:45:00.006Z,4.60
2022-11-26T06:47:27.956Z,4.60
2022-11-26T06:49:55.361Z,4.70
2022-11-26T06:52:22.851Z,4.70
2022-11-26T06:54:50.412Z,4.70
2022-11-26T06:57:17.895Z,4.80
2022-11-26T06:59:45.287Z,4.80
2022-11-26T07:02:12.756Z,4.90
2022-11-26T07:04:40.559Z,4.90
2022-11-26T07:07:08.520Z,5.00
2022-11-26T07:09:35.997Z,5.00
2022-11-26T07:12:03.533Z,5.00
2022-11-26T07:14:31.001Z,5.10
2022-11-26T07:16:58.471Z,5.10
2022-11-26T07:19:26.565Z,5.10
2022-11-26T07:21:54.519Z,5.20
2022-11-26T07:24:21.920Z,5.20
2022-11-26T07:26:49.462Z,5.20
2022-11-26T07:29:16.975Z,5.20
2022-11-26T07:31:44.432Z,5.30
2022-11-26T07:34:11.883Z,5.30
2022-11-26T07:36:43.239Z,5.30
2022-11-26T07:39:12.150Z,5.30
2022-11-26T07:41:39.733Z,5.40
2022-11-26T07:44:07.183Z,5.50
2022-11-26T07:46:34.667Z,5.40
2022-11-26T07:49:02.355Z,5.50
2022-11-26T07:51:32.603Z,5.50
2022-11-26T07:54:05.264Z,5.60
2022-11-26T07:56:32.859Z,5.60
2022-11-26T07:59:00.951Z,5.50
2022-11-26T08:01:32.464Z,5.60
2022-11-26T08:04:04.716Z,5.60
2022-11-26T08:06:33.656Z,5.60
2022-11-26T08:09:02.600Z,5.60
2022-11-26T08:11:32.808Z,5.70
2022-11-26T08:14:06.738Z,5.70
2022-11-26T08:16:34.584Z,5.70
2022-11-26T08:19:12.732Z,5.80
2022-11-26T08:21:40.987Z,5.80
2022-11-26T08:24:13.901Z,5.80
2022-11-26T08:26:44.161Z,5.90
2022-11-26T08:29:13.858Z,5.90
2022-11-26T08:31:45.553Z,6.00
2022-11-26T08:34:16.330Z,5.90
2022-11-26T08:36:45.194Z,5.90
2022-11-26T08:39:17.938Z,5.90
2022-11-26T08:41:50.580Z,5.90
2022-11-26T08:44:19.803Z,5.90
2022-11-26T08:46:47.450Z,6.00
2022-11-26T08:49:15.371Z,6.00
2022-11-26T08:51:43.883Z,6.00
2022-11-26T08:54:12.100Z,6.00
2022-11-26T08:56:39.629Z,6.10
2022-11-26T08:59:07.048Z,6.00
2022-11-26T09:01:34.938Z,6.10
2022-11-26T09:04:04.195Z,6.10
2022-11-26T09:06:36.853Z,6.00
2022-11-26T09:09:15.448Z,6.00
2022-11-26T09:11:57.698Z,6.10
2022-11-26T09:14:28.670Z,6.10
2022-11-26T09:16:57.830Z,6.00
2022-11-26T09:19:27.074Z,6.10
2022-11-26T09:21:55.129Z,6.00
2022-11-26T09:24:23.280Z,6.00
2022-11-26T09:26:51.111Z,6.00
2022-11-26T09:29:22.229Z,6.00
2022-11-26T09:32:21.250Z,6.00
2022-11-26T09:34:39.337Z,6.00
2022-11-26T09:37:07.881Z,5.90
2022-11-26T09:39:35.364Z,6.00
2022-11-26T09:42:27.951Z,6.00
2022-11-26T09:45:29.285Z,6.00
2022-11-26T09:47:57.102Z,6.00
2022-11-26T09:50:31.854Z,6.00
2022-11-26T09:53:27.330Z,6.00
2022-11-26T09:55:56.845Z,5.90
2022-11-26T09:58:57.874Z,5.80
2022-11-26T10:01:25.820Z,5.70
2022-11-26T10:03:53.558Z,5.50
2022-11-26T10:06:45.040Z,5.50
2022-11-26T10:09:30.307Z,5.50
2022-11-26T10:12:24.972Z,5.50
2022-11-26T10:15:14.612Z,5.40
2022-11-26T10:18:04.147Z,5.40
2022-11-26T10:20:37.271Z,5.40
2022-11-26T10:23:13.530Z,5.40
2022-11-26T10:25:52.861Z,5.50
2022-11-26T10:28:40.477Z,5.50
2022-11-26T10:31:26.600Z,5.40
2022-11-26T10:34:04.560Z,5.40
2022-11-26T10:36:41.877Z,5.40
2022-11-26T10:39:17.034Z,5.50
2022-11-26T10:41:45.229Z,5.50
2022-11-26T10:44:41.540Z,5.60
2022-11-26T10:47:31.002Z,5.50
2022-11-26T10:50:19.197Z,5.40
2022-11-26T10:52:55.019Z,5.40
2022-11-26T10:55:30.776Z,5.30
2022-11-26T10:58:15.335Z,5.20
2022-11-26T11:00:49.601Z,5.20
2022-11-26T11:03:38.523Z,5.10
2022-11-26T11:06:19.127Z,5.00
2022-11-26T11:08:52.520Z,5.00
2022-11-26T11:11:21.170Z,5.00
2022-11-26T11:13:49.562Z,5.00
2022-11-26T11:16:50.640Z,4.90
2022-11-26T11:19:28.295Z,4.90
2022-11-26T11:21:55.894Z,5.00
2022-11-26T11:24:28.790Z,5.00
2022-11-26T11:27:00.441Z,5.00
2022-11-26T11:29:37.306Z,5.10
2022-11-26T11:32:09.734Z,5.20
2022-11-26T11:34:43.057Z,5.10
2022-11-26T11:37:23.918Z,5.20
2022-11-26T11:40:09.207Z,5.30
2022-11-26T11:42:40.639Z,5.40
2022-11-26T11:45:28.636Z,5.40
2022-11-26T11:48:04.702Z,5.50
2022-11-26T11:50:46.929Z,5.60
2022-11-26T11:53:39.385Z,5.70
2022-11-26T11:56:34.328Z,5.70
2022-11-26T11:59:25.295Z,5.70
2022-11-26T12:02:21.452Z,5.60
2022-11-26T12:04:58.361Z,5.60
2022-11-26T12:07:57.276Z,5.60
2022-11-26T12:11:06.110Z,5.60
2022-11-26T12:13:48.050Z,5.70
2022-11-26T12:16:18.123Z,5.80
2022-11-26T12:19:02.766Z,5.90
2022-11-26T12:21:54.585Z,6.00
2022-11-26T12:24:46.672Z,6.00
2022-11-26T12:27:33.697Z,6.10
2022-11-26T12:30:38.943Z,6.00
2022-11-26T12:33:20.811Z,6.00
2022-11-26T12:36:01.573Z,5.90
2022-11-26T12:38:40.255Z,5.90
2022-11-26T12:41:43.389Z,6.00
2022-11-26T12:44:42.688Z,6.00
2022-11-26T12:47:18.848Z,6.10
2022-11-26T12:50:03.541Z,6.20
2022-11-26T12:53:14.014Z,6.10
2022-11-26T12:55:54.154Z,6.10
2022-11-26T12:58:56.508Z,6.10
2022-11-26T13:01:24.550Z,6.10
2022-11-26T13:04:03.360Z,6.00
2022-11-26T13:07:23.608Z,6.00
2022-11-26T13:10:02.912Z,6.00
2022-11-26T13:13:00.501Z,6.00
2022-11-26T13:16:11.223Z,5.90
2022-11-26T13:18:46.775Z,5.80
2022-11-26T13:21:41.425Z,5.80
2022-11-26T13:24:23.795Z,5.80
2022-11-26T13:27:37.232Z,5.80
2022-11-26T13:30:21.417Z,5.80
2022-11-26T13:33:27.697Z,5.70
2022-11-26T13:36:18.863Z,5.70
2022-11-26T13:38:52.658Z,5.70
2022-11-26T13:42:10.121Z,5.70
2022-11-26T13:44:47.428Z,5.70
2022-11-26T13:47:37.477Z,5.70
2022-11-26T13:50:10.606Z,5.60
2022-11-26T13:52:48.133Z,5.60
2022-11-26T13:55:51.444Z,5.60
2022-11-26T13:58:28.234Z,5.60
2022-11-26T14:00:55.725Z,5.50
2022-11-26T14:03:47.417Z,5.50
2022-11-26T14:06:15.803Z,5.50
2022-11-26T14:08:51.436Z,5.60
2022-11-26T14:11:40.487Z,5.50
2022-11-26T14:14:26.179Z,5.50
2022-11-26T14:17:02.990Z,5.50
2022-11-26T14:19:49.445Z,5.60
2022-11-26T14:22:22.517Z,5.60
2022-11-26T14:24:50.157Z,5.50
2022-11-26T14:27:33.660Z,5.50
2022-11-26T14:30:06.837Z,5.50
2022-11-26T14:33:11.372Z,5.40
2022-11-26T14:35:41.429Z,5.40
2022-11-26T14:38:26.133Z,5.40
2022-11-26T14:41:01.108Z,5.40
2022-11-26T14:43:29.552Z,5.40
2022-11-26T14:46:17.701Z,5.30
2022-11-26T14:48:48.405Z,5.30
2022-11-26T14:51:26.835Z,5.30
2022-11-26T14:53:56.080Z,5.20
2022-11-26T14:56:25.609Z,5.20
2022-11-26T14:58:56.724Z,5.20
2022-11-26T15:01:29.413Z,5.20
2022-11-26T15:04:06.280Z,5.20
2022-11-26T15:06:42.650Z,5.20
2022-11-26T15:09:20.076Z,5.20
2022-11-26T15:12:15.377Z,5.20
2022-11-26T15:14:54.768Z,5.20
2022-11-26T15:17:28.007Z,5.20
2022-11-26T15:20:00.047Z,5.20
2022-11-26T15:22:54.979Z,5.20
2022-11-26T15:25:26.513Z,5.10
2022-11-26T15:28:05.765Z,5.10
2022-11-26T15:30:38.514Z,5.10
2022-11-26T15:33:16.419Z,5.10
2022-11-26T15:35:44.189Z,5.00
2022-11-26T15:38:17.436Z,5.00
2022-11-26T15:40:51.663Z,5.00
2022-11-26T15:43:42.344Z,5.00
2022-11-26T15:46:13.074Z,5.00
2022-11-26T15:48:51.933Z,4.90
2022-11-26T15:51:47.464Z,4.90
2022-11-26T15:54:56.777Z,5.00
2022-11-26T15:57:31.600Z,5.00
2022-11-26T16:00:18.632Z,5.00
2022-11-26T16:02:46.149Z,5.00
2022-11-26T16:05:33.813Z,4.90
2022-11-26T16:08:05.681Z,4.90
2022-11-26T16:10:37.420Z,4.90
2022-11-26T16:13:16.947Z,4.90
2022-11-26T16:16:24.695Z,5.00
2022-11-26T16:19:04.561Z,4.90
2022-11-26T16:21:34.607Z,4.90
2022-11-26T16:24:22.044Z,4.90
2022-11-26T16:27:19.213Z,4.90
2022-11-26T16:29:47.297Z,4.80
2022-11-26T16:32:17.491Z,4.80
2022-11-26T16:34:46.041Z,4.80
2022-11-26T16:37:26.533Z,4.90
2022-11-26T16:40:03.042Z,4.80
2022-11-26T16:42:32.873Z,4.80
2022-11-26T16:45:04.202Z,4.80
2022-11-26T16:47:39.532Z,4.80
2022-11-26T16:50:16.726Z,4.80
2022-11-26T16:52:44.675Z,4.70
2022-11-26T16:55:14.628Z,4.70
2022-11-26T16:57:46.943Z,4.60
2022-11-26T17:00:21.463Z,4.70
2022-11-26T17:02:49.155Z,4.70
2022-11-26T17:05:17.852Z,4.70
2022-11-26T17:07:49.783Z,4.70
2022-11-26T17:10:30.627Z,4.60
2022-11-26T17:12:58.486Z,4.70
2022-11-26T17:15:25.916Z,4.70
2022-11-26T17:18:04.391Z,4.70
2022-11-26T17:20:36.892Z,4.60
2022-11-26T17:23:09.582Z,4.60
2022-11-26T17:25:37.037Z,4.60
2022-11-26T17:28:11.646Z,4.60
2022-11-26T17:30:40.465Z,4.60
2022-11-26T17:33:09.631Z,4.60
2022-11-26T17:35:38.119Z,4.60
2022-11-26T17:38:21.292Z,4.60
2022-11-26T17:40:49.175Z,4.60
2022-11-26T17:43:17.249Z,4.60
2022-11-26T17:45:44.859Z,4.60
2022-11-26T17:48:14.335Z,4.60
2022-11-26T17:50:42.842Z,4.70
2022-11-26T17:53:10.346Z,4.70
2022-11-26T17:55:38.471Z,4.70
2022-11-26T17:58:05.886Z,4.70
2022-11-26T18:00:33.383Z,4.70
2022-11-26T18:03:02.191Z,4.70
2022-11-26T18:05:29.668Z,4.70
2022-11-26T18:07:57.155Z,4.70
2022-11-26T18:10:24.862Z,4.80
2022-11-26T18:12:55.752Z,4.80
2022-11-26T18:15:26.777Z,4.80
2022-11-26T18:17:56.048Z,4.70
2022-11-26T18:20:28.985Z,4.80
2022-11-26T18:23:00.957Z,4.90
2022-11-26T18:25:30.013Z,4.80
2022-11-26T18:27:57.381Z,4.90
2022-11-26T18:30:25.464Z,4.80
2022-11-26T18:32:53.058Z,4.70
2022-11-26T18:35:20.509Z,4.60
2022-11-26T18:37:47.923Z,4.60
2022-11-26T18:40:17.926Z,4.60
2022-11-26T18:42:45.483Z,4.70
2022-11-26T18:45:16.040Z,4.80
2022-11-26T18:47:43.777Z,4.80
2022-11-26T18:50:13.822Z,4.70
2022-11-26T18:52:41.343Z,4.80
2022-11-26T18:55:09.927Z,4.80
2022-11-26T18:57:37.442Z,4.80
2022-11-26T19:00:07.186Z,4.80
2022-11-26T19:02:36.531Z,4.80
2022-11-26T19:05:05.335Z,4.80
2022-11-26T19:07:33.316Z,4.80
2022-11-26T19:10:00.804Z,4.90
2022-11-26T19:12:28.302Z,4.90
2022-11-26T19:14:55.698Z,4.90
2022-11-26T19:17:23.114Z,4.80
2022-11-26T19:19:50.494Z,4.80
2022-11-26T19:22:17.940Z,4.80
2022-11-26T19:24:45.365Z,4.90
2022-11-26T19:27:13.938Z,4.90
2022-11-26T19:29:41.647Z,4.80
2022-11-26T19:32:09.222Z,4.70
2022-11-26T19:34:37.019Z,4.60
2022-11-26T19:37:04.644Z,4.40
2022-11-26T19:39:32.515Z,4.40
2022-11-26T19:42:00.252Z,4.40
2022-11-26T19:44:27.636Z,4.40
2022-11-26T19:46:55.059Z,4.50
2022-11-26T19:49:22.966Z,4.60
2022-11-26T19:51:50.417Z,4.60
2022-11-26T19:54:17.888Z,4.70
2022-11-26T19:56:46.934Z,4.70
2022-11-26T19:59:16.074Z,4.90
2022-11-26T20:01:43.651Z,4.90
2022-11-26T20:04:16.161Z,4.90
2022-11-26T20:06:44.263Z,4.80
2022-11-26T20:09:14.169Z,4.90
2022-11-26T20:11:42.360Z,4.80
2022-11-26T20:14:10.839Z,4.80
2022-11-26T20:16:42.303Z,4.80
2022-11-26T20:19:11.315Z,4.70
2022-11-26T20:21:39.485Z,4.70
2022-11-26T20:24:12.716Z,4.70
2022-11-26T20:26:42.438Z,4.70
2022-11-26T20:29:13.892Z,4.70
2022-11-26T20:31:50.827Z,4.70
2022-11-26T20:34:23.788Z,4.70
2022-11-26T20:36:51.248Z,4.60
2022-11-26T20:39:22.411Z,4.60
2022-11-26T20:41:50.820Z,4.50
2022-11-26T20:44:18.475Z,4.50
2022-11-26T20:46:45.915Z,4.50
2022-11-26T20:49:16.101Z,4.60
2022-11-26T20:51:43.612Z,4.60
2022-11-26T20:54:11.075Z,4.70
2022-11-26T20:56:38.611Z,4.70
2022-11-26T20:59:09.000Z,4.70
2022-11-26T21:01:37.407Z,4.80
2022-11-26T21:04:05.213Z,4.80
2022-11-26T21:06:35.276Z,4.70
2022-11-26T21:09:05.693Z,4.60
2022-11-26T21:11:33.399Z,4.50
2022-11-26T21:14:01.878Z,4.40
2022-11-26T21:16:30.384Z,4.40
2022-11-26T21:18:58.844Z,4.50
2022-11-26T21:21:28.266Z,4.60
2022-11-26T21:23:57.535Z,4.60
2022-11-26T21:26:26.797Z,4.50
2022-11-26T21:28:59.417Z,4.50
2022-11-26T21:31:30.246Z,4.50
2022-11-26T21:34:04.249Z,4.50
2022-11-26T21:36:35.784Z,4.50
2022-11-26T21:39:06.778Z,4.30
2022-11-26T21:41:34.416Z,4.30
2022-11-26T21:44:04.088Z,4.20
2022-11-26T21:46:37.917Z,4.10
2022-11-26T21:49:06.458Z,4.10
2022-11-26T21:51:33.928Z,4.10
2022-11-26T21:54:01.323Z,4.10
2022-11-26T21:56:31.579Z,4.20
2022-11-26T21:59:00.822Z,4.20
2022-11-26T22:01:36.148Z,4.10
2022-11-26T22:04:08.450Z,4.10
2022-11-26T22:06:36.774Z,4.00
2022-11-26T22:09:05.744Z,4.10
2022-11-26T22:11:36.873Z,4.00
2022-11-26T22:14:05.913Z,4.00
2022-11-26T22:16:34.321Z,4.10
2022-11-26T22:19:02.434Z,4.20
2022-11-26T22:21:40.158Z,4.20
2022-11-26T22:24:11.979Z,4.20
2022-11-26T22:26:39.769Z,4.20
2022-11-26T22:29:07.699Z,4.20
2022-11-26T22:31:37.970Z,4.10
2022-11-26T22:34:18.660Z,4.10
2022-11-26T22:36:46.200Z,4.00
2022-11-26T22:39:16.932Z,3.90
2022-11-26T22:41:46.231Z,4.10
2022-11-26T22:44:15.820Z,4.20
2022-11-26T22:46:43.739Z,4.20
2022-11-26T22:49:15.998Z,4.30
2022-11-26T22:51:43.751Z,4.20
2022-11-26T22:54:14.326Z,4.10
2022-11-26T22:56:42.485Z,4.10
2022-11-26T22:59:13.420Z,4.10
2022-11-26T23:01:41.073Z,4.10
2022-11-26T23:04:10.868Z,4.00
2022-11-26T23:06:40.428Z,4.00
2022-11-26T23:09:09.782Z,4.00
2022-11-26T23:11:40.603Z,4.00
2022-11-26T23:14:09.770Z,4.00
2022-11-26T23:16:39.976Z,4.10
2022-11-26T23:19:07.833Z,4.00
2022-11-26T23:21:40.513Z,4.00
2022-11-26T23:24:09.261Z,4.10
2022-11-26T23:26:39.160Z,4.20
2022-11-26T23:29:08.118Z,4.20
2022-11-26T23:31:45.456Z,4.30
2022-11-26T23:34:13.440Z,4.20
2022-11-26T23:36:41.314Z,4.20
2022-11-26T23:39:12.175Z,4.20
2022-11-26T23:41:39.793Z,4.10
2022-11-26T23:44:07.339Z,4.10
2022-11-26T23:46:37.742Z,4.20
2022-11-26T23:49:05.305Z,4.10
2022-11-26T23:51:34.045Z,4.20
2022-11-26T23:54:01.570Z,4.20
2022-11-26T23:56:32.716Z,4.10
2022-11-26T23:59:03.093Z,4.10
